Time;durP1;ratioP1;P1;durP2;ratioP2;P2;SDS_P1;SDS_P2;PMS_P1;PMS_P2;Temp;Humidity;BMP_temperature;BMP_pressure;BME280_temperature;BME280_humidity;BME280_pressure;Samples;Min_cycle;Max_cycle;Signal;HPM_P1;HPM_P2
2022/10/16 00:01:28;;;;;;;8.18;1.20;;;12.50;99.90;;;;;;5133816;27;20050;-64
2022/10/16 00:03:55;;;;;;;6.30;1.45;;;12.60;99.90;;;;;;5134070;27;20039;-64
2022/10/16 00:06:22;;;;;;;6.32;1.65;;;12.60;99.90;;;;;;5135049;27;20035;-65
2022/10/16 00:08:49;;;;;;;5.22;1.27;;;12.60;99.90;;;;;;5133514;27;20069;-64
2022/10/16 00:11:19;;;;;;;5.50;1.70;;;12.60;99.90;;;;;;5133533;27;20039;-64
2022/10/16 00:13:47;;;;;;;5.07;1.40;;;12.60;99.90;;;;;;5116702;27;20127;-64
2022/10/16 00:16:14;;;;;;;3.58;1.25;;;12.60;99.90;;;;;;5134571;27;20039;-65
2022/10/16 00:18:41;;;;;;;6.35;1.60;;;12.60;99.90;;;;;;5114103;27;20039;-64
2022/10/16 00:21:13;;;;;;;4.05;1.40;;;12.60;99.90;;;;;;5116162;27;20071;-65
2022/10/16 00:23:40;;;;;;;5.43;1.70;;;12.70;99.90;;;;;;5116348;27;20035;-65
2022/10/16 00:26:12;;;;;;;5.18;1.25;;;12.70;99.90;;;;;;5116051;27;20490;-65
2022/10/16 00:28:39;;;;;;;5.03;1.50;;;12.70;99.90;;;;;;5116332;27;20450;-64
2022/10/16 00:31:07;;;;;;;7.57;1.52;;;12.80;99.90;;;;;;5115866;27;20063;-64
2022/10/16 00:33:34;;;;;;;7.78;1.45;;;12.80;99.90;;;;;;5134475;27;20043;-64
2022/10/16 00:36:01;;;;;;;10.27;1.70;;;12.80;99.90;;;;;;5115658;27;20054;-65
2022/10/16 00:38:27;;;;;;;5.28;2.00;;;12.80;99.90;;;;;;5134488;27;20394;-65
2022/10/16 00:40:53;;;;;;;8.07;1.70;;;12.80;99.90;;;;;;5115863;27;20032;-65
2022/10/16 00:43:38;;;;;;;6.00;1.70;;;12.80;99.90;;;;;;5115276;27;20035;-64
2022/10/16 00:46:10;;;;;;;6.18;2.13;;;12.70;99.90;;;;;;5098866;27;20039;-64
2022/10/16 00:48:36;;;;;;;4.68;1.50;;;12.70;99.90;;;;;;5096406;27;20046;-65
2022/10/16 00:51:04;;;;;;;5.70;1.58;;;12.70;99.90;;;;;;5098496;27;20039;-65
2022/10/16 00:53:30;;;;;;;3.28;1.20;;;12.70;99.90;;;;;;5133925;27;20543;-65
2022/10/16 00:55:56;;;;;;;6.68;1.65;;;12.70;99.90;;;;;;5115294;27;20039;-64
2022/10/16 00:58:22;;;;;;;5.95;1.80;;;12.70;99.90;;;;;;5133784;27;20160;-65
2022/10/16 01:00:48;;;;;;;8.90;2.88;;;12.80;99.90;;;;;;5115580;27;20047;-65
2022/10/16 01:03:29;;;;;;;3.83;1.60;;;12.80;99.90;;;;;;5133988;27;20062;-64
2022/10/16 01:06:21;;;;;;;6.03;1.45;;;12.80;99.90;;;;;;5115343;27;20035;-65
2022/10/16 01:09:00;;;;;;;7.95;2.20;;;12.80;99.90;;;;;;5115326;27;20043;-65
2022/10/16 01:11:53;;;;;;;6.88;1.55;;;12.80;99.90;;;;;;5115132;27;20041;-65
2022/10/16 01:14:50;;;;;;;7.18;1.65;;;12.80;99.90;;;;;;5115453;27;20078;-65
2022/10/16 01:17:22;;;;;;;4.00;1.33;;;12.80;99.90;;;;;;5114963;27;20055;-64
2022/10/16 01:20:12;;;;;;;5.97;1.70;;;12.80;99.90;;;;;;5131147;27;20035;-65
2022/10/16 01:23:02;;;;;;;3.88;1.35;;;12.70;99.90;;;;;;5133381;27;20039;-64
2022/10/16 01:26:18;;;;;;;5.57;1.40;;;12.70;99.90;;;;;;5131712;27;20043;-64
2022/10/16 01:29:20;;;;;;;4.05;1.48;;;12.70;99.90;;;;;;5028125;28;20040;-65
2022/10/16 01:31:51;;;;;;;4.35;1.70;;;12.70;99.90;;;;;;4994396;28;20053;-64
2022/10/16 01:34:33;;;;;;;9.00;1.70;;;12.70;99.90;;;;;;5086017;28;20118;-65
2022/10/16 01:37:11;;;;;;;6.95;1.92;;;12.70;99.90;;;;;;5092947;28;20119;-64
2022/10/16 01:39:40;;;;;;;5.10;2.05;;;12.70;99.90;;;;;;5092872;28;20051;-65
2022/10/16 01:42:23;;;;;;;7.18;1.90;;;12.60;99.90;;;;;;5093015;28;20430;-65
2022/10/16 01:44:51;;;;;;;3.25;1.73;;;12.60;99.90;;;;;;5092637;28;20100;-65
2022/10/16 01:47:22;;;;;;;3.90;1.55;;;12.60;99.90;;;;;;5109973;28;20477;-66
2022/10/16 01:49:47;;;;;;;;;;;12.60;99.90;;;;;;5109052;28;20518;-64
2022/10/16 01:52:19;;;;;;;8.90;2.25;;;12.60;99.90;;;;;;5076044;28;19924;-65
2022/10/16 01:54:49;;;;;;;5.75;1.50;;;12.60;99.90;;;;;;5110632;28;20039;-64
2022/10/16 01:57:17;;;;;;;4.60;1.27;;;12.60;99.90;;;;;;5092483;28;20052;-65
2022/10/16 01:59:49;;;;;;;3.85;1.80;;;12.60;99.90;;;;;;5092484;28;20071;-65
2022/10/16 02:02:17;;;;;;;7.72;2.10;;;12.60;99.90;;;;;;5110733;28;20543;-65
2022/10/16 02:04:52;;;;;;;7.40;2.03;;;12.60;99.90;;;;;;5092512;28;20043;-66
2022/10/16 02:07:18;;;;;;;5.18;1.70;;;12.60;99.90;;;;;;5092603;28;20047;-66
2022/10/16 02:09:44;;;;;;;6.20;1.50;;;12.60;99.90;;;;;;5092364;28;20453;-66
2022/10/16 02:12:29;;;;;;;6.30;1.63;;;12.60;99.90;;;;;;5110763;28;20035;-65
2022/10/16 02:14:55;;;;;;;6.25;1.50;;;12.60;99.90;;;;;;5092586;28;20084;-65
2022/10/16 02:17:22;;;;;;;5.93;1.90;;;12.60;99.90;;;;;;5092190;28;20505;-65
2022/10/16 02:19:51;;;;;;;5.78;1.70;;;12.60;99.90;;;;;;5090029;28;20361;-64
2022/10/16 02:22:25;;;;;;;4.57;1.63;;;12.60;99.90;;;;;;5092107;28;20488;-65
2022/10/16 02:25:17;;;;;;;3.85;1.70;;;12.70;99.90;;;;;;5092379;28;20039;-65
2022/10/16 02:27:57;;;;;;;6.97;1.70;;;12.70;99.90;;;;;;5092229;28;20039;-65
2022/10/16 02:30:28;;;;;;;2.83;1.60;;;12.70;99.90;;;;;;5100637;27;20062;-64
2022/10/16 02:32:56;;;;;;;3.30;1.50;;;12.70;99.90;;;;;;5151986;27;20053;-65
2022/10/16 02:35:24;;;;;;;5.53;1.63;;;12.70;99.90;;;;;;5132935;27;20411;-65
2022/10/16 02:37:51;;;;;;;3.08;1.80;;;12.70;99.90;;;;;;5132998;27;20039;-66
2022/10/16 02:40:19;;;;;;;4.03;1.50;;;12.70;99.90;;;;;;5115841;27;20070;-65
2022/10/16 02:42:49;;;;;;;4.32;1.30;;;12.70;99.90;;;;;;5151378;27;20035;-65
2022/10/16 02:45:15;;;;;;;6.75;1.80;;;12.70;99.90;;;;;;5151371;27;20031;-65
2022/10/16 02:47:41;;;;;;;3.33;1.77;;;12.70;99.90;;;;;;5151663;27;20038;-65
2022/10/16 02:50:07;;;;;;;2.97;1.35;;;12.80;99.90;;;;;;5148909;27;20402;-64
2022/10/16 02:52:33;;;;;;;4.47;1.42;;;12.70;99.90;;;;;;5133123;27;20070;-64
2022/10/16 02:54:59;;;;;;;3.83;1.70;;;12.80;99.90;;;;;;5132778;27;20134;-65
2022/10/16 02:57:26;;;;;;;4.95;1.65;;;12.80;99.90;;;;;;5132679;27;20042;-65
2022/10/16 02:59:52;;;;;;;5.28;1.75;;;12.80;99.90;;;;;;5132940;27;20082;-65
2022/10/16 03:02:18;;;;;;;5.72;1.38;;;12.80;99.90;;;;;;5132953;27;20135;-65
2022/10/16 03:04:44;;;;;;;3.53;1.70;;;12.80;99.90;;;;;;5132975;27;20074;-65
2022/10/16 03:07:10;;;;;;;3.13;1.30;;;12.80;99.90;;;;;;5136656;27;20047;-65
2022/10/16 03:09:35;;;;;;;3.40;1.63;;;12.80;99.90;;;;;;5136785;27;20047;-65
2022/10/16 03:12:01;;;;;;;4.38;1.55;;;12.80;99.90;;;;;;5136604;27;20043;-65
2022/10/16 03:14:27;;;;;;;4.38;1.60;;;12.80;99.90;;;;;;5119478;27;20050;-65
2022/10/16 03:16:53;;;;;;;3.55;1.50;;;12.80;99.90;;;;;;5154995;27;20103;-65
2022/10/16 03:19:19;;;;;;;3.00;1.30;;;12.80;99.90;;;;;;5134841;27;20121;-65
2022/10/16 03:21:45;;;;;;;6.70;1.90;;;12.80;99.90;;;;;;5155150;27;20099;-65
2022/10/16 03:24:11;;;;;;;5.30;2.17;;;12.80;99.90;;;;;;5119606;27;20466;-65
2022/10/16 03:26:37;;;;;;;2.75;1.50;;;12.80;99.90;;;;;;5154982;27;20089;-65
2022/10/16 03:29:03;;;;;;;4.00;1.42;;;12.80;99.90;;;;;;5136322;27;20070;-65
2022/10/16 03:31:32;;;;;;;3.85;1.55;;;12.80;99.90;;;;;;5136401;27;20090;-65
2022/10/16 03:33:58;;;;;;;5.33;1.40;;;12.80;99.90;;;;;;5154844;27;20114;-65
2022/10/16 03:36:24;;;;;;;3.20;1.35;;;12.80;99.90;;;;;;5119251;27;20292;-65
2022/10/16 03:38:50;;;;;;;3.78;1.70;;;12.90;99.90;;;;;;5136169;27;20700;-66
2022/10/16 03:41:15;;;;;;;4.78;2.45;;;12.90;99.90;;;;;;5136132;27;20039;-65
2022/10/16 03:43:41;;;;;;;5.82;1.65;;;12.80;99.90;;;;;;5154607;27;20090;-65
2022/10/16 03:46:07;;;;;;;5.10;1.70;;;12.90;99.90;;;;;;5154834;27;20538;-66
2022/10/16 03:48:34;;;;;;;6.68;1.60;;;12.90;99.90;;;;;;5134136;27;20039;-65
2022/10/16 03:51:00;;;;;;;5.72;1.58;;;12.80;99.90;;;;;;5136257;27;20386;-65
2022/10/16 03:53:26;;;;;;;3.58;1.65;;;12.90;99.90;;;;;;5136049;27;20038;-65
2022/10/16 03:55:52;;;;;;;4.18;1.50;;;12.90;99.90;;;;;;5154451;27;20042;-66
2022/10/16 03:58:19;;;;;;;4.95;1.75;;;12.80;99.90;;;;;;5154322;27;20413;-65
2022/10/16 04:00:47;;;;;;;5.40;1.40;;;12.80;99.90;;;;;;5154607;27;20440;-65
2022/10/16 04:03:13;;;;;;;4.35;1.70;;;12.80;99.90;;;;;;5135934;27;20383;-65
2022/10/16 04:05:39;;;;;;;6.05;1.80;;;12.80;99.90;;;;;;5135580;27;20043;-65
2022/10/16 04:08:05;;;;;;;4.82;1.85;;;12.80;99.90;;;;;;5154337;27;20041;-65
2022/10/16 04:10:32;;;;;;;3.88;1.98;;;12.80;99.90;;;;;;5154095;27;20486;-65
2022/10/16 04:12:58;;;;;;;3.53;1.75;;;12.70;99.90;;;;;;5154000;27;20035;-65
2022/10/16 04:15:25;;;;;;;4.00;1.88;;;12.70;99.90;;;;;;5118375;27;20043;-65
2022/10/16 04:17:51;;;;;;;6.35;2.45;;;12.70;99.90;;;;;;5134736;27;20035;-65
2022/10/16 04:20:17;;;;;;;4.38;2.15;;;12.70;99.90;;;;;;5151783;27;20042;-65
2022/10/16 04:22:44;;;;;;;3.53;2.20;;;12.70;99.90;;;;;;5135547;27;20039;-65
2022/10/16 04:25:11;;;;;;;6.55;2.70;;;12.80;99.90;;;;;;5153932;27;20035;-65
2022/10/16 04:27:37;;;;;;;3.83;2.20;;;12.70;99.90;;;;;;5135238;27;20573;-65
2022/10/16 04:30:04;;;;;;;3.83;2.17;;;12.80;99.90;;;;;;5153807;27;20034;-65
2022/10/16 04:32:29;;;;;;;6.82;2.60;;;12.90;99.90;;;;;;5118130;27;20043;-65
2022/10/16 04:34:55;;;;;;;4.72;2.20;;;12.90;99.90;;;;;;5118504;27;20332;-65
2022/10/16 04:37:27;;;;;;;4.00;2.40;;;12.90;99.90;;;;;;5153593;27;20030;-65
2022/10/16 04:39:54;;;;;;;3.28;2.30;;;12.90;99.90;;;;;;5135321;27;20116;-65
2022/10/16 04:42:20;;;;;;;5.18;2.22;;;12.90;99.90;;;;;;5153338;27;20031;-65
2022/10/16 04:44:47;;;;;;;3.42;2.38;;;12.90;99.90;;;;;;5117825;27;20049;-65
2022/10/16 04:47:13;;;;;;;8.13;2.90;;;12.90;99.90;;;;;;5118009;27;20046;-66
2022/10/16 04:49:39;;;;;;;3.28;2.08;;;12.90;99.90;;;;;;5151096;27;20034;-65
2022/10/16 04:52:05;;;;;;;4.35;2.60;;;12.90;99.90;;;;;;5134761;27;20489;-65
2022/10/16 04:54:31;;;;;;;3.70;2.25;;;12.90;99.90;;;;;;5117792;27;20078;-66
2022/10/16 04:56:57;;;;;;;4.57;2.28;;;12.90;99.90;;;;;;5134915;27;20043;-64
2022/10/16 04:59:23;;;;;;;7.35;3.03;;;12.90;99.90;;;;;;5117767;27;20042;-67
2022/10/16 05:01:49;;;;;;;5.10;2.70;;;12.90;99.90;;;;;;5153106;27;20043;-65
2022/10/16 05:04:15;;;;;;;6.97;2.50;;;12.90;99.90;;;;;;5134779;27;20038;-65
2022/10/16 05:06:42;;;;;;;4.35;2.55;;;13.00;99.90;;;;;;5117371;27;20045;-65
2022/10/16 05:09:08;;;;;;;8.32;2.72;;;12.90;99.90;;;;;;5134322;27;20512;-64
2022/10/16 05:11:34;;;;;;;6.15;2.90;;;13.00;99.90;;;;;;5153157;27;20030;-65
2022/10/16 05:14:01;;;;;;;6.82;2.70;;;13.00;99.90;;;;;;5153050;27;20042;-65
2022/10/16 05:16:28;;;;;;;4.05;2.25;;;13.00;99.90;;;;;;5134341;27;20051;-65
2022/10/16 05:18:55;;;;;;;6.88;2.80;;;13.00;99.90;;;;;;5150311;27;20038;-65
2022/10/16 05:21:23;;;;;;;4.68;2.50;;;13.00;99.90;;;;;;5152701;27;20026;-65
2022/10/16 05:23:49;;;;;;;5.05;2.55;;;13.00;99.90;;;;;;5152571;27;20070;-65
2022/10/16 05:26:16;;;;;;;4.95;2.83;;;13.00;99.90;;;;;;5116928;27;20049;-65
2022/10/16 05:28:41;;;;;;;4.60;2.40;;;12.90;99.90;;;;;;5133560;27;20061;-65
2022/10/16 05:31:09;;;;;;;9.55;2.58;;;12.90;99.90;;;;;;5152182;27;20498;-65
2022/10/16 05:33:35;;;;;;;5.10;3.00;;;12.90;99.90;;;;;;5152619;27;20042;-65
2022/10/16 05:36:03;;;;;;;4.43;2.80;;;12.90;99.90;;;;;;5116691;27;20038;-65
2022/10/16 05:38:28;;;;;;;4.75;2.92;;;12.80;99.90;;;;;;5133610;27;20050;-65
2022/10/16 05:40:54;;;;;;;6.60;2.80;;;12.80;99.90;;;;;;5134093;27;20050;-65
2022/10/16 05:43:21;;;;;;;4.75;2.20;;;12.80;99.90;;;;;;5152465;27;20041;-66
2022/10/16 05:45:57;;;;;;;6.53;3.17;;;12.80;99.90;;;;;;5116657;27;20043;-65
2022/10/16 05:48:24;;;;;;;4.75;2.80;;;12.80;99.90;;;;;;5133705;27;20117;-65
2022/10/16 05:51:00;;;;;;;6.85;2.80;;;12.90;99.90;;;;;;5150445;27;20479;-65
2022/10/16 05:53:31;;;;;;;5.78;3.30;;;12.90;99.90;;;;;;5133642;27;20049;-65
2022/10/16 05:55:58;;;;;;;9.80;4.22;;;12.90;99.90;;;;;;5152144;27;20030;-64
2022/10/16 05:58:24;;;;;;;6.05;3.17;;;12.90;99.90;;;;;;5152164;27;20076;-65
2022/10/16 06:01:01;;;;;;;7.63;3.00;;;12.80;99.90;;;;;;5151986;27;20588;-65
2022/10/16 06:03:27;;;;;;;4.80;2.80;;;12.80;99.90;;;;;;5116116;27;20524;-65
2022/10/16 06:05:53;;;;;;;7.00;3.20;;;12.80;99.90;;;;;;5152179;27;20183;-65
2022/10/16 06:08:21;;;;;;;6.65;2.53;;;12.80;99.90;;;;;;5133247;27;20038;-65
2022/10/16 06:10:47;;;;;;;5.25;2.95;;;12.80;99.90;;;;;;5133290;27;20038;-65
2022/10/16 06:13:14;;;;;;;4.80;2.80;;;12.80;99.90;;;;;;5133220;27;20110;-65
2022/10/16 06:15:41;;;;;;;6.07;3.08;;;12.80;99.90;;;;;;5133621;27;20517;-65
2022/10/16 06:18:08;;;;;;;4.18;2.55;;;12.80;99.90;;;;;;5133006;27;20510;-65
2022/10/16 06:20:34;;;;;;;5.38;2.50;;;12.80;99.90;;;;;;5131356;27;20129;-65
2022/10/16 06:23:00;;;;;;;3.83;2.40;;;12.70;99.90;;;;;;5133236;27;20471;-65
2022/10/16 06:25:26;;;;;;;5.40;3.00;;;12.70;99.90;;;;;;5133573;27;20081;-65
2022/10/16 06:27:52;;;;;;;5.72;2.22;;;12.70;99.90;;;;;;5133121;27;20563;-65
2022/10/16 06:30:17;;;;;;;7.13;2.78;;;12.80;99.90;;;;;;5151815;27;20050;-64
2022/10/16 06:32:43;;;;;;;4.85;2.42;;;12.80;99.90;;;;;;5133021;27;20042;-64
2022/10/16 06:35:09;;;;;;;4.57;2.50;;;12.80;99.90;;;;;;5116107;27;20039;-65
2022/10/16 06:37:35;;;;;;;3.80;2.65;;;12.80;99.90;;;;;;5132907;27;20379;-65
2022/10/16 06:40:00;;;;;;;5.78;2.10;;;12.80;99.90;;;;;;5154048;27;20042;-65
2022/10/16 06:42:26;;;;;;;8.00;2.25;;;12.80;99.90;;;;;;5140022;27;20041;-65
2022/10/16 06:44:52;;;;;;;4.80;2.42;;;12.80;99.90;;;;;;5158511;27;20050;-65
2022/10/16 06:47:18;;;;;;;6.03;2.30;;;12.90;99.90;;;;;;5157812;27;20042;-65
2022/10/16 06:49:43;;;;;;;5.95;2.47;;;12.90;99.90;;;;;;5138503;27;20490;-65
2022/10/16 06:52:09;;;;;;;5.25;2.30;;;12.90;99.90;;;;;;5159628;27;20039;-65
2022/10/16 06:54:35;;;;;;;5.20;2.38;;;12.90;99.90;;;;;;5140657;27;20443;-64
2022/10/16 06:57:01;;;;;;;4.28;2.08;;;13.00;99.90;;;;;;5140796;27;20038;-65
2022/10/16 06:59:27;;;;;;;6.53;2.35;;;12.90;99.90;;;;;;5140731;27;20470;-64
2022/10/16 07:01:53;;;;;;;5.55;2.28;;;12.90;99.90;;;;;;5140695;27;20039;-65
2022/10/16 07:04:19;;;;;;;4.75;2.10;;;12.90;99.90;;;;;;5140685;27;20039;-64
2022/10/16 07:06:45;;;;;;;4.97;2.50;;;12.90;99.90;;;;;;5141002;27;20037;-64
2022/10/16 07:09:11;;;;;;;8.60;3.45;;;12.90;99.90;;;;;;5140963;27;20057;-64
2022/10/16 07:11:38;;;;;;;7.70;2.50;;;12.90;99.90;;;;;;5140532;27;20094;-64
2022/10/16 07:14:04;;;;;;;8.63;2.35;;;12.90;99.90;;;;;;5140630;27;20126;-64
2022/10/16 07:16:32;;;;;;;3.67;2.30;;;12.90;99.90;;;;;;5159150;27;20070;-65
2022/10/16 07:19:00;;;;;;;4.32;2.53;;;12.90;99.90;;;;;;5157267;27;20030;-64
2022/10/16 07:21:28;;;;;;;4.43;2.60;;;12.90;99.90;;;;;;5140665;27;20039;-64
2022/10/16 07:23:59;;;;;;;4.53;2.50;;;13.00;99.90;;;;;;5140960;27;20129;-65
2022/10/16 07:26:27;;;;;;;4.20;2.40;;;13.00;99.90;;;;;;5140407;27;20042;-64
2022/10/16 07:28:54;;;;;;;4.43;2.13;;;13.00;99.90;;;;;;5140623;27;20050;-63
2022/10/16 07:31:21;;;;;;;3.83;2.22;;;13.00;99.90;;;;;;5136917;27;20055;-65
2022/10/16 07:33:49;;;;;;;6.15;2.75;;;13.10;99.90;;;;;;5137260;27;20050;-65
2022/10/16 07:36:17;;;;;;;5.60;2.22;;;13.20;99.90;;;;;;5137239;27;20035;-65
2022/10/16 07:38:44;;;;;;;4.95;2.33;;;13.20;99.90;;;;;;5136788;27;20567;-65
2022/10/16 07:41:13;;;;;;;4.70;2.60;;;13.30;99.90;;;;;;5136869;27;20035;-65
2022/10/16 07:43:39;;;;;;;6.18;1.92;;;13.30;99.90;;;;;;5135932;27;20043;-66
2022/10/16 07:46:06;;;;;;;3.95;1.25;;;13.40;99.90;;;;;;5137926;27;20035;-64
2022/10/16 07:48:34;;;;;;;11.90;3.65;;;13.40;99.90;;;;;;5135630;27;20653;-64
2022/10/16 07:51:02;;;;;;;3.78;1.42;;;13.40;99.90;;;;;;5136720;27;20088;-64
2022/10/16 07:53:29;;;;;;;4.47;1.63;;;13.50;99.90;;;;;;5133169;27;20075;-65
2022/10/16 07:56:00;;;;;;;6.60;1.30;;;13.50;99.90;;;;;;5135023;27;20035;-65
2022/10/16 07:58:28;;;;;;;6.90;1.30;;;13.50;99.90;;;;;;5135246;27;20042;-66
2022/10/16 08:00:55;;;;;;;2.75;1.50;;;13.60;99.90;;;;;;5133804;27;20039;-65
2022/10/16 08:03:21;;;;;;;3.70;1.40;;;13.60;99.90;;;;;;5135239;27;20117;-65
2022/10/16 08:05:47;;;;;;;2.53;1.00;;;13.60;99.90;;;;;;5133753;27;20188;-65
2022/10/16 08:08:15;;;;;;;4.55;1.20;;;13.70;99.90;;;;;;5133988;27;20084;-65
2022/10/16 08:10:42;;;;;;;5.40;1.08;;;13.60;99.90;;;;;;5133868;27;20043;-64
2022/10/16 08:13:09;;;;;;;4.22;1.10;;;13.70;99.90;;;;;;5133891;27;20069;-66
2022/10/16 08:15:35;;;;;;;2.88;1.10;;;14.00;99.90;;;;;;5133604;27;20039;-66
2022/10/16 08:18:04;;;;;;;4.20;0.98;;;14.60;99.90;;;;;;5131731;27;20039;-66
2022/10/16 08:20:32;;;;;;;3.17;1.10;;;15.20;99.90;;;;;;5132234;27;20033;-65
2022/10/16 08:23:00;;;;;;;2.08;0.82;;;15.80;99.90;;;;;;5134924;27;20043;-66
2022/10/16 08:25:26;;;;;;;5.03;1.23;;;16.40;99.90;;;;;;5125529;27;20035;-66
2022/10/16 08:27:53;;;;;;;4.10;1.25;;;16.60;99.90;;;;;;5101716;27;20046;-65
2022/10/16 08:30:21;;;;;;;4.40;1.60;;;16.50;99.90;;;;;;5117385;27;20047;-66
2022/10/16 08:32:48;;;;;;;2.20;1.23;;;16.40;99.90;;;;;;5117426;27;20047;-66
2022/10/16 08:35:14;;;;;;;3.95;1.30;;;16.70;99.90;;;;;;5135609;27;20045;-66
2022/10/16 08:37:42;;;;;;;6.00;1.50;;;17.20;99.90;;;;;;5117203;27;20039;-66
2022/10/16 08:40:20;;;;;;;3.45;1.13;;;17.60;99.90;;;;;;5132472;27;20071;-68
2022/10/16 08:43:01;;;;;;;3.85;1.25;;;18.10;99.90;;;;;;5117068;27;20114;-67
2022/10/16 08:45:37;;;;;;;7.32;1.42;;;18.60;99.90;;;;;;5117413;27;20046;-67
2022/10/16 08:48:40;;;;;;;4.50;1.58;;;18.90;99.90;;;;;;5116393;27;20502;-67
2022/10/16 08:51:09;;;;;;;6.97;1.40;;;19.10;99.90;;;;;;5124121;27;20040;-66
2022/10/16 08:53:52;;;;;;;9.00;1.73;;;19.30;99.90;;;;;;5117174;27;20074;-66
2022/10/16 08:56:18;;;;;;;4.65;1.05;;;19.50;99.90;;;;;;5110072;28;20113;-67
2022/10/16 08:58:47;;;;;;;3.92;1.23;;;19.80;99.90;;;;;;5114631;27;20043;-66
2022/10/16 09:01:16;;;;;;;8.00;1.60;;;20.10;99.90;;;;;;5116675;27;20394;-67
2022/10/16 09:03:52;;;;;;;6.53;1.80;;;20.30;99.90;;;;;;5116739;27;20372;-67
2022/10/16 09:06:46;;;;;;;6.43;1.60;;;20.50;99.90;;;;;;5116820;27;20047;-66
2022/10/16 09:09:34;;;;;;;8.77;1.67;;;20.60;99.90;;;;;;5109988;28;20549;-67
2022/10/16 09:12:21;;;;;;;6.53;1.25;;;20.60;99.90;;;;;;5134381;27;20039;-66
2022/10/16 09:14:58;;;;;;;4.03;1.23;;;20.70;99.90;;;;;;5134904;27;20075;-66
2022/10/16 09:17:44;;;;;;;8.25;2.03;;;20.80;99.90;;;;;;5116104;27;20515;-66
2022/10/16 09:20:27;;;;;;;9.88;1.70;;;20.70;99.90;;;;;;5132246;27;20043;-68
2022/10/16 09:23:14;;;;;;;8.30;1.73;;;21.00;99.90;;;;;;5116220;27;20035;-66
2022/10/16 09:25:47;;;;;;;12.95;2.20;;;20.90;99.90;;;;;;5133368;27;20047;-69
2022/10/16 09:28:13;;;;;;;5.57;1.48;;;21.00;99.90;;;;;;5116150;27;20499;-65
2022/10/16 09:30:39;;;;;;;14.23;1.95;;;21.30;99.90;;;;;;5134262;27;20055;-66
2022/10/16 09:33:08;;;;;;;7.70;2.13;;;21.20;99.90;;;;;;5134459;27;20054;-65
2022/10/16 09:35:44;;;;;;;10.82;1.95;;;21.50;99.90;;;;;;5115963;27;20126;-66
2022/10/16 09:38:24;;;;;;;11.18;1.77;;;21.80;99.90;;;;;;5115801;27;20047;-67
2022/10/16 09:40:50;;;;;;;9.82;1.73;;;22.00;99.90;;;;;;5115900;27;20072;-66
2022/10/16 09:43:42;;;;;;;4.70;1.15;;;22.20;99.90;;;;;;5134333;27;20061;-66
2022/10/16 09:46:21;;;;;;;12.60;1.77;;;22.40;99.90;;;;;;5092877;27;20078;-66
2022/10/16 09:48:49;;;;;;;8.77;1.55;;;22.50;99.90;;;;;;5131810;27;20486;-65
2022/10/16 09:51:36;;;;;;;8.30;1.60;;;22.80;99.90;;;;;;5134204;27;20375;-67
2022/10/16 09:54:16;;;;;;;9.82;1.77;;;23.30;99.90;;;;;;5133905;27;20046;-66
2022/10/16 09:56:46;;;;;;;11.57;2.00;;;23.00;99.90;;;;;;5115333;27;20118;-66
2022/10/16 09:59:17;;;;;;;13.00;2.13;;;22.60;99.90;;;;;;5114485;27;20039;-66
2022/10/16 10:01:54;;;;;;;6.88;1.20;;;22.80;99.90;;;;;;5115091;27;20096;-66
2022/10/16 10:04:23;;;;;;;7.78;1.75;;;23.00;99.90;;;;;;5098946;28;20039;-66
2022/10/16 10:06:56;;;;;;;4.70;1.67;;;23.20;99.90;;;;;;5114396;27;20043;-66
2022/10/16 10:09:29;;;;;;;9.90;1.60;;;23.50;99.90;;;;;;5133776;27;20084;-66
2022/10/16 10:12:02;;;;;;;10.35;1.92;;;23.80;99.90;;;;;;5133788;27;20072;-67
2022/10/16 10:14:39;;;;;;;7.47;1.90;;;24.10;99.90;;;;;;5133736;27;20483;-67
2022/10/16 10:17:21;;;;;;;7.65;1.80;;;24.30;99.90;;;;;;5115081;28;20096;-66
2022/10/16 10:19:50;;;;;;;9.73;1.88;;;24.50;99.90;;;;;;5112990;28;20043;-67
2022/10/16 10:22:38;;;;;;;11.25;2.05;;;24.60;99.90;;;;;;5115332;27;20054;-67
2022/10/16 10:25:13;;;;;;;6.90;1.73;;;24.50;99.90;;;;;;5109692;27;20031;-67
2022/10/16 10:28:09;;;;;;;9.55;1.65;;;24.50;99.90;;;;;;5106820;27;20096;-66
2022/10/16 10:30:47;;;;;;;14.68;2.50;;;24.80;99.90;;;;;;5115058;28;20073;-66
2022/10/16 10:33:35;;;;;;;7.25;2.15;;;25.00;99.90;;;;;;5115121;28;20043;-66
2022/10/16 10:36:09;;;;;;;12.63;1.95;;;25.00;99.30;;;;;;5115348;28;20043;-66
2022/10/16 10:38:48;;;;;;;10.43;1.83;;;24.60;99.10;;;;;;5115369;28;20118;-66
2022/10/16 10:41:29;;;;;;;12.32;2.88;;;24.40;99.90;;;;;;5115172;28;20054;-66
2022/10/16 10:44:14;;;;;;;8.40;2.10;;;24.60;99.90;;;;;;5097954;28;20379;-66
2022/10/16 10:46:51;;;;;;;9.07;1.45;;;24.80;99.00;;;;;;5099706;28;20042;-66
2022/10/16 10:49:20;;;;;;;6.97;1.58;;;24.60;99.30;;;;;;5111619;28;20099;-66
2022/10/16 10:52:09;;;;;;;11.90;2.40;;;24.50;99.00;;;;;;5115580;28;20043;-65
2022/10/16 10:54:45;;;;;;;6.65;1.70;;;24.10;99.30;;;;;;5115000;28;20039;-67
2022/10/16 10:57:45;;;;;;;14.32;2.40;;;23.30;98.90;;;;;;5114753;28;20043;-66
2022/10/16 11:00:10;;;;;;;8.20;2.00;;;22.40;99.90;;;;;;5133139;28;20043;-66
2022/10/16 11:02:54;;;;;;;5.07;1.73;;;21.80;99.90;;;;;;5114993;28;20041;-66
2022/10/16 11:05:40;;;;;;;8.25;1.80;;;21.50;99.90;;;;;;5114675;28;20073;-65
2022/10/16 11:08:20;;;;;;;9.38;2.03;;;21.10;99.90;;;;;;5114603;28;20039;-65
2022/10/16 11:10:54;;;;;;;9.52;2.05;;;20.70;99.90;;;;;;5133162;28;20050;-65
2022/10/16 11:13:20;;;;;;;10.40;1.73;;;20.30;99.90;;;;;;5114622;28;20135;-65
2022/10/16 11:15:48;;;;;;;8.90;1.83;;;20.00;99.90;;;;;;5097648;28;20070;-66
2022/10/16 11:18:32;;;;;;;17.35;2.60;;;20.20;99.90;;;;;;5114666;28;20410;-65
2022/10/16 11:21:06;;;;;;;6.78;1.60;;;20.30;99.90;;;;;;5131616;28;20035;-66
2022/10/16 11:23:41;;;;;;;12.10;2.15;;;20.60;99.90;;;;;;5114220;28;20035;-65
2022/10/16 11:26:16;;;;;;;10.40;2.13;;;20.60;99.90;;;;;;5114434;27;20042;-66
2022/10/16 11:28:55;;;;;;;9.95;1.80;;;20.70;99.90;;;;;;5117146;27;20043;-66
2022/10/16 11:31:37;;;;;;;14.85;1.88;;;20.70;99.90;;;;;;5118220;27;20051;-66
2022/10/16 11:34:34;;;;;;;12.00;2.20;;;20.60;99.90;;;;;;5117533;27;20065;-66
2022/10/16 11:37:23;;;;;;;10.55;2.00;;;20.80;99.90;;;;;;5117097;27;20103;-67
2022/10/16 11:39:52;;;;;;;13.80;2.35;;;20.70;99.90;;;;;;5136112;27;20038;-65
2022/10/16 11:42:30;;;;;;;10.88;1.98;;;20.40;99.90;;;;;;5135884;27;20032;-65
2022/10/16 11:45:20;;;;;;;10.13;1.80;;;20.10;99.90;;;;;;5131190;27;20114;-64
2022/10/16 11:48:16;;;;;;;9.18;2.17;;;19.90;99.90;;;;;;5111154;27;20054;-64
2022/10/16 11:51:05;;;;;;;11.80;1.95;;;19.70;99.90;;;;;;5133300;27;20462;-65
2022/10/16 11:53:49;;;;;;;10.20;2.38;;;19.60;99.90;;;;;;5116988;27;20122;-64
2022/10/16 11:56:21;;;;;;;12.25;1.60;;;19.50;99.90;;;;;;5134321;27;20122;-65
2022/10/16 11:59:13;;;;;;;16.23;2.70;;;19.40;99.90;;;;;;5117023;27;20479;-65
2022/10/16 12:01:57;;;;;;;15.38;1.95;;;19.40;99.90;;;;;;5135533;27;20084;-65
2022/10/16 12:04:45;;;;;;;9.38;2.13;;;19.30;99.90;;;;;;5134338;27;20039;-65
2022/10/16 12:07:18;;;;;;;14.88;1.90;;;19.30;99.90;;;;;;5134323;27;20039;-65
2022/10/16 12:09:44;;;;;;;9.15;1.77;;;19.20;99.90;;;;;;5133942;27;20614;-64
2022/10/16 12:12:38;;;;;;;8.70;2.05;;;19.10;99.90;;;;;;5133986;27;20123;-65
2022/10/16 12:15:29;;;;;;;19.38;3.05;;;18.70;99.90;;;;;;5133908;27;20530;-65
2022/10/16 12:17:56;;;;;;;18.02;2.88;;;18.40;99.90;;;;;;5135249;27;20062;-65
2022/10/16 12:20:26;;;;;;;13.52;2.05;;;18.20;99.90;;;;;;5131655;27;20088;-65
2022/10/16 12:22:56;;;;;;;;;;;18.00;99.90;;;;;;5117365;27;20039;-65
2022/10/16 12:25:30;;;;;;;15.30;2.72;;;17.90;99.90;;;;;;5134976;27;20358;-65
2022/10/16 12:28:06;;;;;;;11.75;2.35;;;17.90;99.90;;;;;;5133892;27;20043;-65
2022/10/16 12:30:35;;;;;;;10.57;2.38;;;17.90;99.90;;;;;;5133395;27;20047;-64
2022/10/16 12:33:16;;;;;;;12.17;2.23;;;17.90;99.90;;;;;;5133691;27;20125;-64
2022/10/16 12:35:46;;;;;;;10.90;2.10;;;17.80;99.90;;;;;;5115180;27;20100;-64
2022/10/16 12:38:29;;;;;;;13.07;1.80;;;17.80;99.90;;;;;;5133198;27;20040;-64
2022/10/16 12:41:05;;;;;;;13.43;2.50;;;17.70;99.90;;;;;;5133644;27;20043;-64
2022/10/16 12:43:42;;;;;;;11.85;1.58;;;17.70;99.90;;;;;;5134567;27;20043;-64
2022/10/16 12:46:07;;;;;;;12.80;3.08;;;17.70;99.90;;;;;;5134493;27;20106;-64
2022/10/16 12:48:35;;;;;;;12.27;2.33;;;17.70;99.90;;;;;;5132680;27;20567;-64
2022/10/16 12:51:30;;;;;;;16.08;2.63;;;17.80;99.90;;;;;;5132644;27;20456;-64
2022/10/16 12:54:27;;;;;;;8.90;1.52;;;17.80;99.90;;;;;;5094183;28;20496;-64
2022/10/16 12:56:59;;;;;;;10.57;2.17;;;17.70;99.90;;;;;;5127718;27;20046;-65
2022/10/16 13:00:03;;;;;;;9.30;1.98;;;17.70;99.90;;;;;;5134489;27;20402;-65
2022/10/16 13:02:37;;;;;;;11.15;2.00;;;17.60;99.90;;;;;;5122523;27;20051;-64
2022/10/16 13:05:25;;;;;;;9.80;2.03;;;17.50;99.90;;;;;;5130293;27;20043;-64
2022/10/16 13:08:28;;;;;;;17.48;1.88;;;17.50;99.90;;;;;;5130558;27;20111;-64
2022/10/16 13:11:38;;;;;;;13.27;2.40;;;17.50;99.90;;;;;;5112127;28;20043;-64